Time;durP1;ratioP1;P1;durP2;ratioP2;P2;SDS_P1;SDS_P2;PMS_P1;PMS_P2;Temp;Humidity;BMP_temperature;BMP_pressure;BME280_temperature;BME280_humidity;BME280_pressure;Samples;Min_cycle;Max_cycle;Signal;HPM_P1;HPM_P2
2022/10/01 00:01:54;;;;;;;3.70;3.40;;;17.00;69.70;;;;;;5049981;28;20605;-67
2022/10/01 00:04:20;;;;;;;3.70;3.40;;;16.90;69.70;;;;;;5049956;28;20233;-67
2022/10/01 00:06:46;;;;;;;3.58;3.30;;;16.90;69.70;;;;;;5033401;28;20218;-67
2022/10/01 00:09:12;;;;;;;3.80;3.30;;;16.90;69.70;;;;;;5033222;28;20203;-67
2022/10/01 00:11:38;;;;;;;3.83;3.53;;;17.00;69.80;;;;;;5033117;28;20190;-65
2022/10/01 00:14:03;;;;;;;3.45;3.15;;;17.00;70.70;;;;;;5033503;28;20265;-66
2022/10/01 00:16:30;;;;;;;3.72;3.42;;;17.00;69.90;;;;;;5049682;28;20207;-67
2022/10/01 00:18:57;;;;;;;3.33;3.03;;;17.00;69.80;;;;;;5033038;28;20242;-67
2022/10/01 00:21:27;;;;;;;3.30;3.00;;;17.00;69.90;;;;;;5034212;28;20559;-67
2022/10/01 00:24:03;;;;;;;2.88;2.67;;;16.90;69.80;;;;;;5016473;28;20191;-67
2022/10/01 00:26:33;;;;;;;3.00;2.70;;;16.90;69.70;;;;;;5032861;28;20199;-67
2022/10/01 00:29:04;;;;;;;3.08;2.88;;;16.90;69.80;;;;;;5032959;28;20195;-66
2022/10/01 00:31:30;;;;;;;3.25;2.95;;;16.90;69.70;;;;;;5033037;28;20180;-66
2022/10/01 00:33:59;;;;;;;2.90;2.70;;;16.90;69.80;;;;;;5049485;28;20559;-67
2022/10/01 00:36:26;;;;;;;3.42;3.13;;;17.00;69.90;;;;;;5032749;28;20207;-67
2022/10/01 00:38:52;;;;;;;3.30;3.05;;;16.90;69.80;;;;;;5032708;28;20211;-66
2022/10/01 00:41:18;;;;;;;3.42;3.13;;;16.90;69.80;;;;;;5049134;28;20187;-66
2022/10/01 00:43:52;;;;;;;3.38;3.10;;;16.90;69.80;;;;;;5032617;28;20183;-67
2022/10/01 00:46:26;;;;;;;3.20;2.90;;;17.00;69.90;;;;;;5032442;28;20207;-66
2022/10/01 00:49:01;;;;;;;3.60;3.30;;;16.90;69.80;;;;;;5032769;28;20248;-67
2022/10/01 00:51:33;;;;;;;3.25;3.00;;;16.90;69.80;;;;;;5032521;28;20183;-66
2022/10/01 00:54:12;;;;;;;3.10;2.90;;;16.90;69.80;;;;;;5033596;28;20183;-67
2022/10/01 00:56:38;;;;;;;3.10;2.80;;;16.90;69.80;;;;;;5016223;28;20260;-67
2022/10/01 00:59:05;;;;;;;2.70;2.50;;;16.90;69.80;;;;;;5015830;28;20297;-66
2022/10/01 01:01:35;;;;;;;3.25;2.95;;;16.90;69.80;;;;;;5032136;28;20198;-66
2022/10/01 01:04:01;;;;;;;3.08;2.88;;;16.90;69.90;;;;;;5033386;28;20265;-67
2022/10/01 01:06:28;;;;;;;2.83;2.63;;;16.90;69.80;;;;;;5031954;28;20303;-67
2022/10/01 01:08:55;;;;;;;3.47;3.17;;;16.90;69.80;;;;;;5015520;28;20241;-66
2022/10/01 01:11:37;;;;;;;3.55;2.72;;;16.90;69.80;;;;;;5031405;28;20187;-67
2022/10/01 01:14:24;;;;;;;3.45;3.15;;;16.90;69.80;;;;;;5015523;28;20670;-67
2022/10/01 01:17:09;;;;;;;2.97;2.78;;;16.90;69.80;;;;;;5033141;28;20698;-67
2022/10/01 01:19:53;;;;;;;2.95;2.75;;;16.90;69.70;;;;;;5032209;28;20222;-67
2022/10/01 01:22:24;;;;;;;2.90;2.70;;;16.90;69.70;;;;;;5031610;28;20190;-66
2022/10/01 01:25:18;;;;;;;3.00;2.80;;;16.90;69.80;;;;;;5032071;28;20183;-66
2022/10/01 01:28:10;;;;;;;2.88;2.67;;;16.90;69.80;;;;;;5031780;28;20176;-67
2022/10/01 01:30:39;;;;;;;2.85;2.63;;;16.90;69.70;;;;;;5032830;28;20184;-66
2022/10/01 01:33:16;;;;;;;2.70;2.50;;;16.90;69.50;;;;;;5031337;28;20215;-66
2022/10/01 01:35:51;;;;;;;3.22;2.92;;;16.90;69.50;;;;;;5031466;28;20211;-67
2022/10/01 01:38:26;;;;;;;2.80;2.60;;;16.90;69.50;;;;;;5031416;28;20287;-67
2022/10/01 01:40:57;;;;;;;2.70;2.50;;;16.90;69.50;;;;;;5031845;28;20190;-66
2022/10/01 01:43:32;;;;;;;2.75;2.55;;;16.90;69.60;;;;;;5031510;28;20188;-67
2022/10/01 01:46:02;;;;;;;2.92;2.65;;;16.90;69.60;;;;;;5031651;28;20202;-67
2022/10/01 01:48:30;;;;;;;2.95;2.70;;;16.90;69.50;;;;;;5031784;28;20179;-67
2022/10/01 01:51:30;;;;;;;2.63;2.42;;;16.90;69.60;;;;;;5031320;28;20187;-66
2022/10/01 01:53:56;;;;;;;2.72;2.53;;;16.90;69.50;;;;;;5031643;28;20222;-67
2022/10/01 01:56:22;;;;;;;2.65;2.45;;;16.90;69.50;;;;;;5032446;28;20239;-66
2022/10/01 01:58:49;;;;;;;2.33;2.13;;;16.90;69.50;;;;;;5031412;28;20203;-66
2022/10/01 02:01:42;;;;;;;2.63;2.42;;;16.90;69.50;;;;;;5031634;28;20240;-66
2022/10/01 02:04:31;;;;;;;2.80;2.45;;;16.90;69.50;;;;;;5032486;28;20553;-66
2022/10/01 02:07:52;;;;;;;2.13;2.03;;;16.90;69.50;;;;;;5066669;22;20233;-66
2022/10/01 02:11:09;;;;;;;2.38;2.17;;;16.90;69.50;;;;;;5018006;28;20236;-66
2022/10/01 02:13:50;;;;;;;2.67;2.47;;;16.90;69.50;;;;;;4991114;28;20198;-66
2022/10/01 02:17:09;;;;;;;2.50;2.30;;;16.90;69.50;;;;;;5056750;28;20242;-65
2022/10/01 02:19:48;;;;;;;2.30;2.20;;;16.90;69.50;;;;;;4994550;28;20225;-66
2022/10/01 02:22:42;;;;;;;2.55;2.35;;;16.90;69.50;;;;;;5054499;28;20197;-65
2022/10/01 02:25:12;;;;;;;2.30;2.10;;;16.90;69.60;;;;;;5038739;28;20253;-66
2022/10/01 02:27:49;;;;;;;2.50;2.30;;;16.90;69.50;;;;;;5056272;28;20209;-66
2022/10/01 02:30:15;;;;;;;2.47;2.28;;;16.90;69.50;;;;;;5023246;28;20182;-66
2022/10/01 02:32:45;;;;;;;2.60;2.40;;;16.90;69.60;;;;;;5049088;28;20182;-66
2022/10/01 02:35:16;;;;;;;2.40;2.20;;;16.90;69.50;;;;;;5021722;28;20187;-66
2022/10/01 02:37:44;;;;;;;2.08;1.88;;;16.90;69.50;;;;;;5021958;28;20206;-67
2022/10/01 02:40:17;;;;;;;2.25;2.05;;;16.90;69.50;;;;;;5021398;28;20261;-66
2022/10/01 02:42:51;;;;;;;2.00;1.90;;;16.90;69.50;;;;;;5021553;28;20196;-66
2022/10/01 02:45:24;;;;;;;1.90;1.70;;;16.90;69.50;;;;;;5038419;28;20166;-65
2022/10/01 02:48:01;;;;;;;1.77;1.67;;;16.90;69.60;;;;;;5038290;28;20224;-65
2022/10/01 02:50:41;;;;;;;2.80;1.85;;;16.90;69.50;;;;;;5022056;28;20178;-65
2022/10/01 02:53:18;;;;;;;2.00;1.90;;;16.90;69.50;;;;;;5037957;28;20178;-65
2022/10/01 02:55:46;;;;;;;1.73;1.63;;;16.90;69.60;;;;;;5038011;28;20182;-66
2022/10/01 02:58:11;;;;;;;1.85;1.75;;;16.90;69.50;;;;;;5021282;28;20206;-66
2022/10/01 03:00:37;;;;;;;2.15;1.80;;;16.90;69.60;;;;;;5037824;28;20218;-66
2022/10/01 03:03:03;;;;;;;1.85;1.75;;;16.90;69.60;;;;;;5021491;28;20187;-66
2022/10/01 03:05:29;;;;;;;2.13;2.03;;;16.90;69.60;;;;;;5037810;28;20248;-66
2022/10/01 03:07:54;;;;;;;1.85;1.75;;;16.90;69.50;;;;;;5054488;28;20211;-66
2022/10/01 03:10:20;;;;;;;1.80;1.70;;;16.90;69.60;;;;;;5021427;28;20194;-66
2022/10/01 03:12:46;;;;;;;1.77;1.67;;;16.90;69.50;;;;;;5037283;28;20178;-66
2022/10/01 03:15:14;;;;;;;1.70;1.60;;;16.90;69.50;;;;;;5021055;28;20190;-66
2022/10/01 03:17:40;;;;;;;1.70;1.60;;;16.80;69.40;;;;;;5037645;28;20203;-66
2022/10/01 03:20:07;;;;;;;1.95;1.85;;;16.90;69.60;;;;;;5020976;28;20229;-66
2022/10/01 03:22:33;;;;;;;4.00;1.42;;;16.90;69.60;;;;;;5055247;28;20186;-65
2022/10/01 03:24:59;;;;;;;1.77;1.67;;;16.90;69.50;;;;;;5055286;28;20182;-65
2022/10/01 03:27:24;;;;;;;1.50;1.40;;;16.90;69.50;;;;;;5037446;28;20237;-66
2022/10/01 03:29:50;;;;;;;1.70;1.60;;;16.90;69.60;;;;;;5020747;28;20269;-66
2022/10/01 03:32:16;;;;;;;1.65;1.55;;;16.80;69.40;;;;;;5037132;28;20186;-66
2022/10/01 03:34:43;;;;;;;1.73;1.63;;;16.90;69.50;;;;;;5020508;28;20178;-65
2022/10/01 03:37:09;;;;;;;2.08;1.98;;;16.90;69.50;;;;;;5037040;28;20206;-66
2022/10/01 03:39:35;;;;;;;1.70;1.60;;;16.90;69.50;;;;;;5020419;28;20214;-66
2022/10/01 03:42:01;;;;;;;1.52;1.42;;;16.90;69.50;;;;;;5037221;28;20186;-65
2022/10/01 03:44:27;;;;;;;2.65;1.67;;;16.90;69.60;;;;;;5020854;28;20183;-65
2022/10/01 03:46:54;;;;;;;1.58;1.48;;;16.90;69.60;;;;;;5020799;28;20217;-65
2022/10/01 03:49:20;;;;;;;1.60;1.50;;;16.80;69.40;;;;;;5020384;28;20186;-65
2022/10/01 03:51:45;;;;;;;1.73;1.48;;;16.90;69.50;;;;;;5036830;28;20182;-65
2022/10/01 03:54:11;;;;;;;1.67;1.58;;;16.80;69.40;;;;;;5054610;28;20197;-65
2022/10/01 03:56:41;;;;;;;1.50;1.40;;;16.80;69.40;;;;;;5036908;28;20281;-66
2022/10/01 03:59:11;;;;;;;1.40;1.30;;;16.90;69.60;;;;;;5054455;28;20301;-65
2022/10/01 04:01:37;;;;;;;1.48;1.38;;;16.80;69.40;;;;;;5036539;28;20218;-65
2022/10/01 04:04:04;;;;;;;1.63;1.52;;;16.90;69.50;;;;;;5020143;28;20205;-66
2022/10/01 04:06:31;;;;;;;1.60;1.50;;;16.80;69.50;;;;;;5019994;28;20209;-65
2022/10/01 04:08:56;;;;;;;2.25;1.70;;;16.80;69.40;;;;;;5019987;28;20188;-65
2022/10/01 04:11:23;;;;;;;2.05;1.35;;;16.90;69.60;;;;;;5020224;28;20191;-65
2022/10/01 04:13:49;;;;;;;1.40;1.30;;;16.90;69.60;;;;;;5020090;28;20200;-66
2022/10/01 04:16:15;;;;;;;1.67;1.58;;;16.80;69.50;;;;;;5019979;28;20269;-66
2022/10/01 04:18:41;;;;;;;1.30;1.20;;;16.80;69.40;;;;;;5054228;28;20289;-66
2022/10/01 04:21:07;;;;;;;1.50;1.40;;;16.80;69.40;;;;;;5036330;28;20183;-66
2022/10/01 04:23:33;;;;;;;1.52;1.42;;;16.80;69.40;;;;;;5036300;28;20251;-65
2022/10/01 04:26:01;;;;;;;1.60;1.50;;;16.80;69.40;;;;;;5019978;28;20203;-65
2022/10/01 04:28:28;;;;;;;1.65;1.55;;;16.80;69.50;;;;;;5019697;28;20175;-66
2022/10/01 04:33:38;;;;;;;1.33;1.23;;;16.80;70.20;;;;;;5054190;28;20190;-67
2022/10/01 04:36:04;;;;;;;1.30;1.20;;;16.90;69.60;;;;;;5035968;28;20210;-67
2022/10/01 04:38:30;;;;;;;1.50;1.40;;;16.80;69.50;;;;;;5019445;28;20309;-67
2022/10/01 04:40:56;;;;;;;1.77;1.67;;;16.80;69.50;;;;;;5019737;28;20181;-68
2022/10/01 04:43:21;;;;;;;1.48;1.35;;;16.80;69.40;;;;;;5032036;28;20657;-68
2022/10/01 04:45:47;;;;;;;1.40;1.30;;;16.80;69.40;;;;;;5088711;28;20182;-68
2022/10/01 04:48:13;;;;;;;1.40;1.23;;;16.80;69.50;;;;;;5052759;28;20165;-68
2022/10/01 04:50:39;;;;;;;1.67;1.58;;;16.90;69.50;;;;;;5071845;28;20533;-69
2022/10/01 04:53:04;;;;;;;1.60;1.50;;;16.80;69.40;;;;;;5055461;28;20185;-68
2022/10/01 04:55:30;;;;;;;1.40;1.30;;;16.80;69.40;;;;;;5072524;28;20217;-68
2022/10/01 04:57:56;;;;;;;1.40;1.30;;;16.80;69.50;;;;;;5055632;28;20208;-68
2022/10/01 05:00:25;;;;;;;1.50;1.40;;;16.80;69.40;;;;;;5072428;28;20823;-68
2022/10/01 05:02:52;;;;;;;1.60;1.50;;;16.80;69.50;;;;;;5055567;28;20271;-68
2022/10/01 05:05:22;;;;;;;2.45;1.38;;;16.80;69.50;;;;;;5072265;28;20209;-68
2022/10/01 05:07:48;;;;;;;1.58;1.48;;;16.80;69.40;;;;;;5071914;28;20217;-68
2022/10/01 05:10:20;;;;;;;1.30;1.20;;;16.80;69.40;;;;;;5071922;28;20193;-68
2022/10/01 05:12:46;;;;;;;1.50;1.40;;;16.80;69.40;;;;;;5055360;28;20182;-68
2022/10/01 05:15:14;;;;;;;1.52;1.42;;;16.80;69.40;;;;;;5055171;28;20239;-68
2022/10/01 05:17:40;;;;;;;1.52;1.42;;;16.80;69.50;;;;;;5055011;28;20270;-68
2022/10/01 05:20:10;;;;;;;1.80;1.70;;;16.80;69.50;;;;;;5055042;28;20210;-68
2022/10/01 05:22:36;;;;;;;1.42;1.33;;;16.80;69.50;;;;;;5071680;28;20186;-68
2022/10/01 05:25:03;;;;;;;1.50;1.40;;;16.80;69.50;;;;;;5071611;28;20204;-68
2022/10/01 05:27:29;;;;;;;1.67;1.58;;;16.80;69.50;;;;;;5055095;28;20194;-68
2022/10/01 05:29:56;;;;;;;1.58;1.48;;;16.80;69.60;;;;;;5054873;28;20181;-68
2022/10/01 05:32:21;;;;;;;1.52;1.38;;;16.90;69.70;;;;;;5072667;28;20174;-67
2022/10/01 05:34:47;;;;;;;2.20;1.65;;;16.80;69.50;;;;;;5071689;28;20661;-67
2022/10/01 05:37:14;;;;;;;3.20;1.48;;;16.80;69.60;;;;;;5071141;28;20237;-68
2022/10/01 05:39:39;;;;;;;1.98;1.77;;;16.80;69.60;;;;;;5072427;28;20202;-67
2022/10/01 05:42:05;;;;;;;1.70;1.60;;;16.80;69.60;;;;;;5071409;28;20231;-68
2022/10/01 05:44:36;;;;;;;1.60;1.50;;;16.80;69.60;;;;;;5071445;28;20174;-68
2022/10/01 05:47:05;;;;;;;2.03;1.73;;;16.80;69.70;;;;;;5071444;28;20228;-67
2022/10/01 05:49:32;;;;;;;1.85;1.75;;;16.80;69.60;;;;;;5071296;28;20215;-67
2022/10/01 05:51:59;;;;;;;2.10;1.90;;;16.80;69.70;;;;;;5053133;28;20204;-68
2022/10/01 05:54:28;;;;;;;1.80;1.70;;;16.80;69.70;;;;;;5072500;28;20184;-67
2022/10/01 05:56:57;;;;;;;1.90;1.80;;;16.80;69.60;;;;;;5054376;28;20217;-68
2022/10/01 05:59:23;;;;;;;1.75;1.65;;;16.80;69.50;;;;;;5072334;28;20211;-67
2022/10/01 06:01:49;;;;;;;1.80;1.70;;;16.80;69.60;;;;;;5037669;28;20317;-68
2022/10/01 06:04:15;;;;;;;1.83;1.73;;;16.80;69.50;;;;;;5037951;28;20779;-68
2022/10/01 06:06:40;;;;;;;1.70;1.60;;;16.80;69.50;;;;;;5054319;28;20239;-68
2022/10/01 06:09:06;;;;;;;1.90;1.80;;;16.80;69.50;;;;;;5054364;28;20224;-67
2022/10/01 06:11:35;;;;;;;2.20;2.00;;;16.80;69.50;;;;;;5037757;28;20178;-67
2022/10/01 06:14:01;;;;;;;1.73;1.60;;;16.80;69.60;;;;;;5037817;28;20276;-68
2022/10/01 06:16:27;;;;;;;1.40;1.30;;;16.80;69.60;;;;;;5072111;28;20692;-67
2022/10/01 06:18:56;;;;;;;1.77;1.52;;;16.80;69.60;;;;;;5054390;28;20259;-67
2022/10/01 06:21:23;;;;;;;1.83;1.73;;;16.80;69.60;;;;;;5054213;28;20185;-67
2022/10/01 06:23:49;;;;;;;1.60;1.50;;;16.80;69.70;;;;;;5054236;28;20273;-67
2022/10/01 06:26:17;;;;;;;1.80;1.60;;;16.80;70.20;;;;;;5054505;28;20202;-68
2022/10/01 06:28:42;;;;;;;1.77;1.65;;;16.80;69.70;;;;;;5037842;28;20185;-67
2022/10/01 06:31:08;;;;;;;1.60;1.50;;;16.80;69.70;;;;;;5054491;28;20311;-67
2022/10/01 06:33:34;;;;;;;1.67;1.58;;;16.80;69.70;;;;;;5037212;28;20185;-67
2022/10/01 06:36:02;;;;;;;1.75;1.65;;;16.80;69.70;;;;;;5053996;28;20224;-67
2022/10/01 06:38:29;;;;;;;1.85;1.60;;;16.80;69.70;;;;;;5037428;28;20680;-68
2022/10/01 06:41:00;;;;;;;1.73;1.60;;;16.80;69.80;;;;;;5054417;28;20181;-68
2022/10/01 06:43:29;;;;;;;2.33;1.55;;;16.80;69.80;;;;;;5071890;28;20201;-67
2022/10/01 06:45:56;;;;;;;1.92;1.65;;;16.80;69.80;;;;;;5037444;28;20178;-67
2022/10/01 06:48:22;;;;;;;1.92;1.73;;;16.80;69.80;;;;;;5037625;28;20193;-67
2022/10/01 06:50:50;;;;;;;2.20;1.55;;;16.80;69.80;;;;;;5037307;28;20178;-67
2022/10/01 06:53:17;;;;;;;1.98;1.70;;;16.80;69.90;;;;;;5037306;28;20289;-68
2022/10/01 06:55:44;;;;;;;1.70;1.60;;;16.80;69.90;;;;;;5054068;28;20188;-67
2022/10/01 06:58:16;;;;;;;1.50;1.40;;;16.80;69.90;;;;;;5037484;28;20189;-67
2022/10/01 07:00:43;;;;;;;1.50;1.40;;;16.80;69.90;;;;;;5053896;28;20265;-67
2022/10/01 07:03:20;;;;;;;1.50;1.40;;;16.80;69.90;;;;;;5037054;28;20208;-68
2022/10/01 07:05:46;;;;;;;1.50;1.40;;;16.80;69.90;;;;;;5037501;28;20170;-68
2022/10/01 07:08:13;;;;;;;1.33;1.23;;;16.80;69.90;;;;;;5072541;28;20205;-67
2022/10/01 07:10:40;;;;;;;1.70;1.60;;;16.80;69.90;;;;;;5041345;28;20186;-68
2022/10/01 07:13:11;;;;;;;1.40;1.30;;;16.80;69.90;;;;;;5041060;28;20199;-68
2022/10/01 07:15:38;;;;;;;1.55;1.45;;;16.80;69.90;;;;;;5040840;28;20217;-65
2022/10/01 07:18:05;;;;;;;1.75;1.60;;;16.80;70.00;;;;;;5057452;28;20280;-67
2022/10/01 07:20:34;;;;;;;2.15;1.52;;;16.80;70.00;;;;;;5057268;28;20282;-67
2022/10/01 07:23:01;;;;;;;1.55;1.45;;;16.80;70.00;;;;;;5040685;28;20221;-67
2022/10/01 07:25:27;;;;;;;1.80;1.70;;;16.80;69.90;;;;;;5057458;28;20182;-67
2022/10/01 07:28:00;;;;;;;1.88;1.60;;;16.80;69.90;;;;;;5057056;28;20206;-66
2022/10/01 07:30:27;;;;;;;1.75;1.65;;;16.80;70.00;;;;;;5075195;28;20161;-67
2022/10/01 07:32:53;;;;;;;1.70;1.60;;;16.80;70.10;;;;;;5057213;28;20185;-67
2022/10/01 07:35:19;;;;;;;2.20;1.70;;;16.80;70.00;;;;;;5057171;28;20201;-67
2022/10/01 07:37:49;;;;;;;2.53;1.50;;;16.80;70.00;;;;;;5056786;28;20210;-66
2022/10/01 07:40:17;;;;;;;1.60;1.40;;;16.90;70.10;;;;;;5074854;28;20209;-67
2022/10/01 07:42:54;;;;;;;1.83;1.73;;;16.80;70.00;;;;;;5039807;28;20190;-68
2022/10/01 07:45:24;;;;;;;1.60;1.50;;;16.80;70.00;;;;;;5055917;28;20177;-68
2022/10/01 07:47:59;;;;;;;1.85;1.60;;;16.80;70.00;;;;;;5040159;28;20212;-67
2022/10/01 07:50:26;;;;;;;1.98;1.80;;;16.80;70.10;;;;;;5056802;28;20250;-67
2022/10/01 07:52:54;;;;;;;1.65;1.55;;;16.80;70.10;;;;;;5056073;28;20192;-67
2022/10/01 07:55:23;;;;;;;3.05;1.48;;;16.80;70.10;;;;;;5074423;28;20181;-67
2022/10/01 07:57:54;;;;;;;1.50;1.40;;;16.80;70.10;;;;;;5036908;28;20214;-67
2022/10/01 08:00:22;;;;;;;1.40;1.30;;;16.80;70.10;;;;;;5037041;28;20233;-67
2022/10/01 08:02:52;;;;;;;1.58;1.48;;;16.80;70.10;;;;;;5053266;28;20190;-67
2022/10/01 08:05:21;;;;;;;1.70;1.60;;;16.80;70.10;;;;;;5020394;28;20183;-67
2022/10/01 08:07:48;;;;;;;1.52;1.42;;;16.80;70.20;;;;;;5090954;22;20230;-67
2022/10/01 08:10:16;;;;;;;1.60;1.50;;;16.80;70.10;;;;;;5069571;28;20202;-66
2022/10/01 08:12:43;;;;;;;1.80;1.70;;;16.80;70.10;;;;;;5052703;28;20221;-66
2022/10/01 08:15:12;;;;;;;1.50;1.30;;;16.80;70.10;;;;;;5072647;28;20208;-67
2022/10/01 08:17:38;;;;;;;1.85;1.60;;;16.80;70.10;;;;;;5065524;28;20711;-67
2022/10/01 08:20:06;;;;;;;1.63;1.52;;;16.80;70.20;;;;;;5056670;28;20241;-67
2022/10/01 08:22:33;;;;;;;1.40;1.30;;;16.80;70.20;;;;;;5089754;28;20215;-66
2022/10/01 08:24:59;;;;;;;1.85;1.67;;;16.80;70.20;;;;;;5089979;28;20645;-66
2022/10/01 08:27:26;;;;;;;1.50;1.40;;;16.80;70.20;;;;;;5067543;28;20209;-66
2022/10/01 08:29:52;;;;;;;1.48;1.38;;;16.80;70.20;;;;;;5072869;28;20178;-66
2022/10/01 08:32:19;;;;;;;1.52;1.42;;;16.80;70.20;;;;;;5089717;28;20181;-66
2022/10/01 08:34:45;;;;;;;2.13;1.35;;;16.80;70.20;;;;;;5054194;28;20222;-66
2022/10/01 08:37:11;;;;;;;1.70;1.55;;;16.80;70.20;;;;;;5052492;28;20252;-66
2022/10/01 08:39:36;;;;;;;1.40;1.30;;;16.80;70.20;;;;;;5053774;28;20214;-66
2022/10/01 08:42:06;;;;;;;1.65;1.33;;;16.80;70.20;;;;;;5054482;28;20183;-67
2022/10/01 08:44:42;;;;;;;2.13;1.52;;;16.80;70.20;;;;;;5067306;28;20261;-67
2022/10/01 08:47:30;;;;;;;1.45;1.13;;;16.90;70.40;;;;;;5081061;28;20228;-66
2022/10/01 08:50:45;;;;;;;1.40;1.30;;;16.80;70.20;;;;;;5089675;28;20181;-66
2022/10/01 08:53:34;;;;;;;1.58;1.48;;;16.80;70.20;;;;;;5072600;28;20212;-66
2022/10/01 08:56:04;;;;;;;1.50;1.40;;;16.90;70.30;;;;;;5073532;28;20213;-66
2022/10/01 08:58:47;;;;;;;2.28;1.38;;;16.80;70.30;;;;;;5052530;28;20178;-67
2022/10/01 09:01:13;;;;;;;1.58;1.20;;;16.80;70.30;;;;;;5035593;28;20174;-66
2022/10/01 09:03:39;;;;;;;2.13;1.30;;;16.80;70.30;;;;;;5069048;28;20312;-67
2022/10/01 09:06:24;;;;;;;1.48;1.30;;;16.90;70.40;;;;;;5052235;28;20236;-66
2022/10/01 09:09:33;;;;;;;1.40;1.30;;;16.80;70.30;;;;;;5068824;28;20186;-67
2022/10/01 09:12:02;;;;;;;1.30;1.20;;;16.90;70.40;;;;;;5051895;28;20182;-66
2022/10/01 09:14:36;;;;;;;1.20;1.10;;;16.90;70.40;;;;;;5035610;28;20193;-67
2022/10/01 09:17:43;;;;;;;1.23;1.13;;;16.90;70.40;;;;;;5067784;28;20231;-66
2022/10/01 09:20:27;;;;;;;1.40;1.30;;;16.80;70.30;;;;;;5073011;28;20204;-66
2022/10/01 09:23:37;;;;;;;1.33;1.23;;;16.90;70.40;;;;;;5071908;28;20192;-66
2022/10/01 09:26:10;;;;;;;1.30;1.20;;;16.90;70.40;;;;;;5071085;28;20239;-66
2022/10/01 09:28:40;;;;;;;1.20;1.10;;;16.90;70.40;;;;;;5055156;28;20182;-66
2022/10/01 09:31:15;;;;;;;1.80;1.20;;;16.90;70.40;;;;;;5088128;28;20182;-67
2022/10/01 09:33:50;;;;;;;1.30;1.20;;;16.90;70.40;;;;;;5088364;28;20185;-67
2022/10/01 09:36:50;;;;;;;1.02;1.00;;;16.90;70.40;;;;;;5071437;28;20268;-66
2022/10/01 09:39:25;;;;;;;2.25;1.23;;;16.90;70.40;;;;;;5063154;28;20201;-67
2022/10/01 09:41:51;;;;;;;1.10;1.00;;;16.90;70.40;;;;;;5072425;28;20284;-66
2022/10/01 09:44:30;;;;;;;1.10;1.00;;;16.90;70.40;;;;;;5071355;28;20208;-66
2022/10/01 09:46:56;;;;;;;1.08;1.00;;;16.90;70.40;;;;;;5071661;28;20288;-66
2022/10/01 09:49:42;;;;;;;1.40;1.30;;;16.90;70.40;;;;;;5072639;28;20265;-67
2022/10/01 09:52:33;;;;;;;1.40;1.30;;;16.90;70.40;;;;;;5082562;28;20181;-66
2022/10/01 09:55:24;;;;;;;1.38;1.27;;;16.90;70.50;;;;;;5067926;28;20178;-66
2022/10/01 09:58:01;;;;;;;1.30;1.20;;;16.90;70.50;;;;;;5051152;28;20238;-67
2022/10/01 10:00:27;;;;;;;1.55;1.45;;;16.90;70.50;;;;;;5052474;28;20218;-67
2022/10/01 10:02:54;;;;;;;1.40;1.30;;;16.90;70.50;;;;;;5070661;28;20700;-66
2022/10/01 10:05:38;;;;;;;1.20;1.10;;;16.90;70.50;;;;;;5072833;28;20192;-67
2022/10/01 10:08:22;;;;;;;2.00;1.10;;;16.90;71.20;;;;;;5071338;28;20659;-68
2022/10/01 10:10:56;;;;;;;2.00;1.20;;;16.90;70.40;;;;;;5088071;28;20581;-68
2022/10/01 10:13:37;;;;;;;1.13;1.02;;;16.90;70.50;;;;;;5088096;28;20235;-67
2022/10/01 10:16:35;;;;;;;1.15;1.08;;;16.90;70.50;;;;;;5087876;28;20235;-67
2022/10/01 10:19:18;;;;;;;1.27;1.20;;;16.90;70.60;;;;;;5066952;28;20261;-67
2022/10/01 10:21:59;;;;;;;1.83;1.30;;;16.90;70.60;;;;;;5051034;28;20213;-67
2022/10/01 10:24:33;;;;;;;1.45;1.33;;;16.90;70.60;;;;;;5052256;28;20249;-67
2022/10/01 10:27:03;;;;;;;1.00;1.00;;;16.90;70.60;;;;;;5050899;28;20206;-67
2022/10/01 10:29:35;;;;;;;1.10;1.10;;;16.90;70.60;;;;;;5051095;28;20190;-67
2022/10/01 10:32:23;;;;;;;1.05;0.98;;;16.90;70.60;;;;;;5051937;28;20191;-67
2022/10/01 10:34:51;;;;;;;1.30;1.20;;;16.90;70.60;;;;;;5059239;28;20179;-67
2022/10/01 10:37:29;;;;;;;1.30;1.20;;;16.90;70.60;;;;;;5051872;28;20206;-67
2022/10/01 10:39:57;;;;;;;0.93;0.93;;;16.90;70.70;;;;;;5051037;28;20220;-67
2022/10/01 10:42:24;;;;;;;1.15;1.05;;;16.90;70.70;;;;;;5060845;28;20184;-66
2022/10/01 10:44:54;;;;;;;1.40;1.30;;;16.90;70.70;;;;;;5079951;28;20278;-67
2022/10/01 10:47:21;;;;;;;1.20;1.10;;;16.90;70.70;;;;;;5071484;28;20297;-67
2022/10/01 10:49:53;;;;;;;1.00;1.00;;;16.90;70.70;;;;;;5055012;28;20201;-67
2022/10/01 10:52:32;;;;;;;1.25;1.15;;;16.90;70.70;;;;;;5054460;28;20200;-67
2022/10/01 10:55:01;;;;;;;0.90;0.90;;;16.90;70.70;;;;;;5054720;28;20182;-67
2022/10/01 10:57:29;;;;;;;1.10;1.10;;;16.90;70.80;;;;;;5071246;28;20202;-67
2022/10/01 10:59:59;;;;;;;1.00;1.00;;;16.90;70.70;;;;;;5058068;28;20237;-66
2022/10/01 11:02:31;;;;;;;1.10;1.00;;;16.90;70.70;;;;;;5069443;28;20257;-67
2022/10/01 11:05:02;;;;;;;1.58;1.38;;;16.90;70.70;;;;;;5055696;28;20589;-67
2022/10/01 11:07:29;;;;;;;1.40;1.10;;;16.90;70.80;;;;;;5054449;28;20204;-67
2022/10/01 11:10:12;;;;;;;1.10;1.00;;;16.90;70.80;;;;;;5054599;28;20183;-68
2022/10/01 11:13:10;;;;;;;1.42;1.10;;;16.90;70.80;;;;;;5037528;28;20182;-67
2022/10/01 11:16:01;;;;;;;1.10;1.00;;;16.90;70.80;;;;;;5071066;28;20262;-68
2022/10/01 11:19:14;;;;;;;1.52;1.42;;;16.90;70.80;;;;;;5037618;28;20187;-68
2022/10/01 11:21:57;;;;;;;1.20;1.10;;;16.90;70.80;;;;;;5037598;28;20261;-67
2022/10/01 11:24:54;;;;;;;1.48;1.30;;;16.90;70.90;;;;;;5037722;28;20197;-68
2022/10/01 11:27:57;;;;;;;1.33;1.23;;;16.90;70.90;;;;;;5053016;28;20221;-68
2022/10/01 11:30:36;;;;;;;1.73;1.20;;;16.90;70.90;;;;;;5057550;28;20193;-67
2022/10/01 11:33:26;;;;;;;1.05;1.00;;;16.90;70.90;;;;;;5090756;28;20178;-67
2022/10/01 11:35:59;;;;;;;1.40;1.25;;;16.90;70.90;;;;;;5074832;28;20166;-68
2022/10/01 11:38:59;;;;;;;1.02;0.93;;;16.90;70.90;;;;;;5058763;28;20209;-67
2022/10/01 11:41:42;;;;;;;0.80;0.80;;;16.90;70.90;;;;;;5055431;28;20198;-68
2022/10/01 11:44:29;;;;;;;2.15;1.02;;;16.90;70.90;;;;;;5054788;28;20201;-68
2022/10/01 11:47:04;;;;;;;1.17;0.90;;;16.80;70.80;;;;;;5065386;28;20220;-68
2022/10/01 11:49:56;;;;;;;0.93;0.90;;;16.90;70.90;;;;;;5054929;28;20218;-68
2022/10/01 11:52:55;;;;;;;0.93;0.93;;;16.90;70.90;;;;;;5084742;28;20261;-68
2022/10/01 11:58:52;;;;;;;1.02;0.88;;;16.90;71.00;;;;;;5054472;28;20217;-67
2022/10/01 12:01:50;;;;;;;1.48;1.10;;;16.90;71.00;;;;;;5053542;28;20208;-67
2022/10/01 12:04:36;;;;;;;1.23;1.13;;;16.90;71.00;;;;;;5069907;28;20289;-68
2022/10/01 12:07:14;;;;;;;1.00;0.90;;;16.90;71.00;;;;;;5046116;28;20214;-67
2022/10/01 12:10:37;;;;;;;1.20;1.10;;;16.80;71.00;;;;;;5059578;28;20249;-66
2022/10/01 12:13:26;;;;;;;0.88;0.88;;;16.90;71.00;;;;;;5085901;28;20217;-67
2022/10/01 12:16:23;;;;;;;0.80;0.80;;;16.90;71.00;;;;;;5069932;28;20177;-67
2022/10/01 12:19:09;;;;;;;1.15;1.13;;;16.90;71.10;;;;;;5063457;28;20206;-67
2022/10/01 12:21:44;;;;;;;1.85;1.23;;;16.90;71.00;;;;;;5056466;28;20192;-67
2022/10/01 12:24:14;;;;;;;1.33;0.90;;;16.90;71.10;;;;;;5073111;28;20292;-67
2022/10/01 12:27:13;;;;;;;0.90;0.90;;;16.90;71.10;;;;;;5056336;28;20201;-67
2022/10/01 12:30:07;;;;;;;1.10;1.00;;;16.90;71.10;;;;;;5073042;28;20177;-67
2022/10/01 12:33:18;;;;;;;0.82;0.82;;;16.90;71.10;;;;;;5056164;28;20276;-67
2022/10/01 12:36:13;;;;;;;1.25;1.15;;;16.90;71.20;;;;;;5089650;28;20177;-67
2022/10/01 12:39:29;;;;;;;1.20;0.90;;;16.90;71.10;;;;;;5063851;28;20241;-67
2022/10/01 12:42:34;;;;;;;0.90;0.90;;;16.90;71.20;;;;;;5054747;28;20186;-67
2022/10/01 12:45:28;;;;;;;1.60;1.00;;;16.90;71.20;;;;;;5036389;28;20167;-67
2022/10/01 12:48:02;;;;;;;1.00;1.00;;;16.90;71.20;;;;;;5035968;28;20246;-67
2022/10/01 12:50:39;;;;;;;0.90;0.90;;;16.90;72.10;;;;;;5060869;28;20179;-67
2022/10/01 12:53:55;;;;;;;1.10;1.10;;;16.90;71.30;;;;;;5074234;28;20220;-67
2022/10/01 12:56:37;;;;;;;1.00;1.00;;;16.90;71.30;;;;;;5046004;28;20210;-68
2022/10/01 12:59:50;;;;;;;0.93;0.85;;;16.90;71.30;;;;;;5070699;28;20205;-67
2022/10/01 13:02:50;;;;;;;0.80;0.80;;;16.90;71.30;;;;;;5060432;28;20239;-67
2022/10/01 13:06:00;;;;;;;0.90;0.90;;;16.90;71.40;;;;;;5059006;28;20201;-68
2022/10/01 13:09:08;;;;;;;0.90;0.90;;;16.90;71.40;;;;;;5072037;28;20197;-67
2022/10/01 13:12:10;;;;;;;0.90;0.90;;;16.90;71.40;;;;;;5073434;28;20191;-67
2022/10/01 13:14:38;;;;;;;1.40;1.00;;;16.90;71.40;;;;;;5089299;28;20212;-68
2022/10/01 13:17:37;;;;;;;0.80;0.80;;;16.90;71.50;;;;;;5071830;28;20213;-68
2022/10/01 13:20:27;;;;;;;1.30;1.20;;;16.90;71.50;;;;;;5071910;28;20201;-68
2022/10/01 13:23:27;;;;;;;0.95;0.90;;;16.90;71.50;;;;;;5055371;28;20197;-67
2022/10/01 13:26:18;;;;;;;0.90;0.90;;;16.90;71.50;;;;;;5073262;28;20170;-66
2022/10/01 13:29:09;;;;;;;0.90;0.90;;;16.90;71.50;;;;;;5055020;28;20178;-67
2022/10/01 13:31:50;;;;;;;0.98;0.98;;;16.90;71.50;;;;;;5055415;28;20264;-68
2022/10/01 13:34:30;;;;;;;1.63;0.98;;;16.90;71.50;;;;;;5065145;28;20181;-68